Time;durP1;ratioP1;P1;durP2;ratioP2;P2;SDS_P1;SDS_P2;PMS_P1;PMS_P2;Temp;Humidity;BMP_temperature;BMP_pressure;BME280_temperature;BME280_humidity;BME280_pressure;Samples;Min_cycle;Max_cycle;Signal;HPM_P1;HPM_P2
2023/10/15 00:01:10;;;;;;;;;21.00;18.50;;;;;17.64;88.61;98976.06;6278618;20;2866947;-46
2023/10/15 00:03:39;;;;;;;;;16.33;16.33;;;;;17.60;88.56;98974.69;6286539;20;3554424;-46
2023/10/15 00:06:08;;;;;;;;;20.33;19.33;;;;;17.64;88.49;98981.50;6314899;20;3575427;-52
2023/10/15 00:08:36;;;;;;;;;18.00;15.00;;;;;17.67;88.45;98980.34;6278740;20;2491962;-53
2023/10/15 00:11:18;;;;;;;;;16.00;15.00;;;;;17.60;89.17;98985.53;6281598;20;2810743;-49
2023/10/15 00:13:48;;;;;;;;;14.00;13.67;;;;;17.68;89.40;98979.31;6282051;20;3531564;-49
2023/10/15 00:16:22;;;;;;;;;16.67;14.67;;;;;17.69;90.03;98983.72;6315315;20;3545118;-46
2023/10/15 00:18:50;;;;;;;;;13.00;13.00;;;;;17.62;91.35;98991.66;6316339;20;2487788;-46
2023/10/15 00:21:19;;;;;;;;;18.67;16.67;;;;;17.60;91.58;98985.53;6283081;20;2841960;-47
2023/10/15 00:23:48;;;;;;;;;14.33;14.33;;;;;17.51;93.23;98987.34;6312044;20;3525327;-47
2023/10/15 00:26:17;;;;;;;;;13.67;13.00;;;;;17.52;93.58;98988.19;6281007;20;3529501;-47
2023/10/15 00:28:45;;;;;;;;;15.33;14.67;;;;;17.31;95.90;98992.06;6279832;20;3538919;-47
2023/10/15 00:31:14;;;;;;;;;17.00;13.33;;;;;17.39;97.17;98995.84;6279937;20;3531725;-47
2023/10/15 00:33:46;;;;;;;;;13.33;12.33;;;;;17.29;99.04;98996.78;6313147;20;3535686;-45
2023/10/15 00:36:15;;;;;;;;;13.33;13.33;;;;;17.20;100.00;99011.28;6276036;20;3531683;-49
2023/10/15 00:38:45;;;;;;;;;15.00;12.00;;;;;16.94;100.00;99008.44;6283023;20;2793133;-45
2023/10/15 00:41:14;;;;;;;;;11.00;11.00;;;;;16.95;100.00;99017.44;6279988;20;2500403;-46
2023/10/15 00:44:09;;;;;;;;;15.00;13.67;;;;;16.80;100.00;99026.06;6282390;20;3537752;-46
2023/10/15 00:46:38;;;;;;;;;13.33;12.67;;;;;16.51;100.00;99026.19;6279410;20;3529538;-48
2023/10/15 00:49:17;;;;;;;;;13.00;13.00;;;;;16.58;100.00;99031.84;6278310;20;3529476;-47
2023/10/15 00:51:46;;;;;;;;;14.67;13.00;;;;;16.32;100.00;99054.16;6279270;20;3528427;-46
2023/10/15 00:54:16;;;;;;;;;16.00;15.67;;;;;16.35;100.00;99064.72;6277526;20;3550384;-50
2023/10/15 00:56:49;;;;;;;;;13.33;11.00;;;;;16.45;100.00;99072.81;6280935;20;2788802;-47
2023/10/15 01:01:54;;;;;;;;;11.00;11.00;;;;;16.25;100.00;99072.03;6286744;20;2788838;-46
2023/10/15 01:04:25;;;;;;;;;11.00;10.00;;;;;16.17;100.00;99066.50;6289257;20;2781592;-48
2023/10/15 01:07:00;;;;;;;;;11.00;10.00;;;;;16.00;100.00;99059.94;6279514;20;3510675;-46
2023/10/15 01:09:30;;;;;;;;;9.33;8.00;;;;;16.10;100.00;99054.50;6312426;20;3466960;-45
2023/10/15 01:12:18;;;;;;;;;6.80;6.80;;;;;15.93;100.00;99056.97;6339578;20;2735654;-45
2023/10/15 01:14:48;;;;;;;;;8.20;7.00;;;;;15.78;100.00;99061.09;6341329;20;2746129;-48
2023/10/15 01:17:23;;;;;;;;;7.20;5.00;;;;;15.83;100.00;99056.13;6336832;20;2748240;-46
2023/10/15 01:19:51;;;;;;;;;7.50;6.00;;;;;15.79;100.00;99062.81;6318268;20;2731709;-50
2023/10/15 01:22:22;;;;;;;;;4.00;4.00;;;;;15.65;100.00;99074.88;6283002;20;2749407;-46
2023/10/15 01:24:53;;;;;;;;;4.50;4.50;;;;;15.71;100.00;99071.63;6286169;20;2752324;-46
2023/10/15 01:27:30;;;;;;;;;4.00;4.00;;;;;15.46;100.00;99073.03;6306405;20;2752407;-50
2023/10/15 01:29:59;;;;;;;;;5.00;3.00;;;;;15.44;100.00;99077.72;6285344;20;2739944;-50
2023/10/15 01:32:30;;;;;;;;;4.50;4.50;;;;;15.44;100.00;99084.97;6285174;20;2752510;-46
2023/10/15 01:35:00;;;;;;;;;5.50;3.00;;;;;15.41;100.00;99093.38;6287369;20;2735715;-46
2023/10/15 01:37:30;;;;;;;;;2.00;2.00;;;;;15.28;100.00;99110.72;6285106;20;2753391;-48
2023/10/15 01:40:16;;;;;;;;;2.00;2.00;;;;;15.21;100.00;99109.56;6280238;20;2752409;-47
2023/10/15 01:42:46;;;;;;;;;1.00;1.00;;;;;15.15;100.00;99100.16;6287790;20;2735689;-49
2023/10/15 01:45:17;;;;;;;;;6.00;3.00;;;;;15.17;100.00;99089.19;6284747;20;2751388;-50
2023/10/15 01:50:33;;;;;;;;;2.00;2.00;;;;;15.22;100.00;99077.94;6284716;20;2748247;-47
2023/10/15 01:53:01;;;;;;;;;1.00;1.00;;;;;15.11;100.00;99090.63;6288647;20;2730478;-46
2023/10/15 01:55:35;;;;;;;;;1.00;1.00;;;;;15.06;100.00;99095.59;6285478;20;2728369;-47
2023/10/15 01:58:06;;;;;;;;;1.00;1.00;;;;;14.97;100.00;99072.06;6301613;20;1801397;-47
2023/10/15 02:00:43;;;;;;;;;1.00;1.00;;;;;15.02;100.00;99069.81;6315083;20;2726346;-51
2023/10/15 02:03:12;;;;;;;;;1.00;1.00;;;;;14.95;100.00;99068.63;6300593;20;1799861;-47
2023/10/15 02:05:41;;;;;;;;;1.00;1.00;;;;;14.83;100.00;99075.16;6316165;20;2727397;-48
2023/10/15 02:08:23;;;;;;;;;1.00;1.00;;;;;14.69;100.00;99084.47;6286798;20;2722911;-45
2023/10/15 02:10:52;;;;;;;;;1.00;1.00;;;;;14.67;100.00;99068.41;6283606;20;2725396;-48
2023/10/15 02:13:26;;;;;;;;;1.00;1.00;;;;;14.73;100.00;99080.50;6287314;20;2617056;-46
2023/10/15 02:15:55;;;;;;;;;0.00;0.00;;;;;14.64;100.00;99100.22;6284722;20;2729561;-46
2023/10/15 02:18:29;;;;;;;;;2.00;1.00;;;;;14.76;100.00;99112.66;6284233;20;2730477;-48
2023/10/15 02:23:25;;;;;;;;;2.00;1.00;;;;;14.69;100.00;99127.69;6282284;20;2728414;-47
2023/10/15 02:25:58;;;;;;;;;2.50;1.00;;;;;14.50;100.00;99120.31;6280720;20;2731620;-46
2023/10/15 02:28:32;;;;;;;;;1.00;1.00;;;;;14.61;100.00;99123.00;6283073;20;2734716;-46
2023/10/15 02:33:33;;;;;;;;;1.00;1.00;;;;;14.75;100.00;99124.47;6297852;20;1793544;-46
2023/10/15 02:36:08;;;;;;;;;0.25;0.25;;;;;14.73;100.00;99131.00;6329252;20;1786607;-48
2023/10/15 02:38:37;;;;;;;;;0.00;0.00;;;;;14.61;100.00;99125.69;6315048;20;2727422;-45
2023/10/15 02:41:06;;;;;;;;;1.00;1.00;;;;;14.53;100.00;99122.78;6285018;20;2727513;-47
2023/10/15 02:43:48;;;;;;;;;1.00;1.00;;;;;14.59;100.00;99113.31;6280958;20;2733561;-45
2023/10/15 02:46:22;;;;;;;;;1.50;1.00;;;;;14.47;100.00;99104.38;6284866;20;2723230;-47
2023/10/15 02:48:53;;;;;;;;;0.00;0.00;;;;;14.64;100.00;99090.28;6292696;20;1803467;-46
2023/10/15 02:51:26;;;;;;;;;0.00;0.00;;;;;14.76;100.00;99076.69;6311987;20;2727455;-50
2023/10/15 02:54:03;;;;;;;;;0.50;0.50;;;;;14.60;100.00;99075.34;6283813;20;2730503;-49
2023/10/15 02:56:30;;;;;;;;;0.00;0.00;;;;;14.62;100.00;99076.06;6288119;20;2731519;-48
2023/10/15 02:58:59;;;;;;;;;0.50;0.50;;;;;14.68;100.00;99078.22;6289826;20;2726472;-47
2023/10/15 03:01:27;;;;;;;;;0.00;0.00;;;;;14.66;100.00;99098.25;6292349;20;2727409;-45
2023/10/15 03:03:56;;;;;;;;;1.00;1.00;;;;;14.53;100.00;99122.78;6291607;20;2728378;-47
2023/10/15 03:06:26;;;;;;;;;1.00;1.00;;;;;14.52;100.00;99118.34;6290309;20;2731564;-46
2023/10/15 03:08:56;;;;;;;;;1.00;1.00;;;;;14.38;100.00;99113.28;6289976;20;2717954;-48
2023/10/15 03:11:31;;;;;;;;;1.00;1.00;;;;;14.47;100.00;99120.59;6289725;20;2733639;-49
2023/10/15 03:14:03;;;;;;;;;1.00;1.00;;;;;14.47;100.00;99128.69;6302780;20;1794110;-47
2023/10/15 03:16:35;;;;;;;;;0.50;0.50;;;;;14.43;100.00;99120.00;6319914;20;2731555;-47
2023/10/15 03:19:25;;;;;;;;;0.00;0.00;;;;;14.59;100.00;99119.56;6288864;20;2729530;-48
2023/10/15 03:21:59;;;;;;;;;1.00;1.00;;;;;14.41;100.00;99129.22;6289381;20;2739886;-47
2023/10/15 03:24:32;;;;;;;;;1.00;1.00;;;;;14.41;100.00;99134.63;6287754;20;2728496;-50
2023/10/15 03:27:00;;;;;;;;;1.00;1.00;;;;;14.16;100.00;99123.22;6287940;20;2736718;-47
2023/10/15 03:29:29;;;;;;;;;2.00;1.00;;;;;14.40;100.00;99116.69;6288925;20;2737832;-47
2023/10/15 03:32:09;;;;;;;;;1.00;1.00;;;;;14.53;100.00;99111.13;6289702;20;2725317;-47
2023/10/15 03:34:54;;;;;;;;;2.00;2.00;;;;;14.44;100.00;99101.94;6304520;20;1798296;-47
2023/10/15 03:37:22;;;;;;;;;1.00;1.00;;;;;14.49;100.00;99095.16;6317106;20;2721238;-47
2023/10/15 03:39:56;;;;;;;;;3.00;1.00;;;;;14.56;100.00;99090.13;6288338;20;2724243;-46
2023/10/15 03:42:27;;;;;;;;;2.00;2.00;;;;;14.46;100.00;99099.97;6286964;20;2744143;-46
2023/10/15 03:45:01;;;;;;;;;1.00;1.00;;;;;14.49;100.00;99110.50;6291123;20;2729438;-47
2023/10/15 03:47:28;;;;;;;;;1.00;1.00;;;;;14.50;100.00;99104.09;6286813;20;2722321;-51
2023/10/15 03:49:56;;;;;;;;;0.00;0.00;;;;;14.43;100.00;99105.66;6286240;20;2733728;-46
2023/10/15 03:52:26;;;;;;;;;1.50;1.00;;;;;14.38;100.00;99113.28;6289314;20;2725395;-48
2023/10/15 03:54:55;;;;;;;;;2.00;2.00;;;;;14.47;100.00;99117.88;6287281;20;2739842;-48
2023/10/15 03:57:28;;;;;;;;;1.00;1.00;;;;;14.54;100.00;99108.28;6285539;20;2725306;-47
2023/10/15 03:59:55;;;;;;;;;1.00;1.00;;;;;14.36;100.00;99109.88;6288694;20;2730467;-47
2023/10/15 04:02:38;;;;;;;;;1.00;1.00;;;;;14.34;100.00;99096.47;6287648;20;2730489;-46
2023/10/15 04:05:12;;;;;;;;;2.00;2.00;;;;;14.46;100.00;99094.56;6286060;20;2728393;-47
2023/10/15 04:07:49;;;;;;;;;1.00;1.00;;;;;14.34;100.00;99090.22;6286731;20;2733856;-46
2023/10/15 04:10:23;;;;;;;;;1.50;1.50;;;;;14.28;100.00;99086.22;6285576;20;2744077;-46
2023/10/15 04:12:52;;;;;;;;;2.00;2.00;;;;;14.34;100.00;99090.22;6288498;20;2730503;-46
2023/10/15 04:15:22;;;;;;;;;3.00;3.00;;;;;14.23;100.00;99083.91;6285316;20;2756508;-47
2023/10/15 04:17:51;;;;;;;;;2.00;2.00;;;;;14.23;100.00;99089.31;6285933;20;2740906;-44
2023/10/15 04:20:35;;;;;;;;;2.00;2.00;;;;;14.36;100.00;99099.06;6286515;20;2746219;-45
2023/10/15 04:23:04;;;;;;;;;2.00;2.00;;;;;14.26;100.00;99097.13;6285591;20;2733605;-44
2023/10/15 04:25:33;;;;;;;;;4.00;2.00;;;;;14.25;100.00;99086.50;6287006;20;2701326;-44
2023/10/15 04:28:10;;;;;;;;;3.00;3.00;;;;;14.21;100.00;99091.28;6284930;20;2739866;-45
2023/10/15 04:30:39;;;;;;;;;2.00;2.00;;;;;14.19;100.00;99106.78;6284494;20;2741988;-45
2023/10/15 04:33:13;;;;;;;;;4.00;3.00;;;;;14.11;100.00;99106.56;6285083;20;2756575;-45
2023/10/15 04:35:42;;;;;;;;;4.00;3.00;;;;;14.20;100.00;99111.19;6287867;20;2756538;-46
2023/10/15 04:38:21;;;;;;;;;4.00;2.00;;;;;14.11;100.00;99100.31;6285059;20;2734071;-45
2023/10/15 04:43:27;;;;;;;;;2.00;2.00;;;;;14.04;100.00;99110.78;6288065;20;2746131;-46
2023/10/15 04:45:57;;;;;;;;;2.00;2.00;;;;;14.26;100.00;99094.44;6284435;20;2752410;-45
2023/10/15 04:48:32;;;;;;;;;2.00;2.00;;;;;14.48;100.00;99087.16;6287297;20;2746118;-46
2023/10/15 04:51:12;;;;;;;;;6.50;5.00;;;;;14.40;100.00;99087.00;6282972;20;2750263;-46
2023/10/15 04:53:44;;;;;;;;;2.50;2.50;;;;;14.44;100.00;99096.53;6301119;20;1801474;-47
2023/10/15 04:56:12;;;;;;;;;3.00;3.00;;;;;14.34;100.00;99092.94;6316812;20;2736837;-45
2023/10/15 04:58:40;;;;;;;;;3.00;3.00;;;;;14.26;100.00;99094.44;6284921;20;2739843;-44
2023/10/15 05:01:09;;;;;;;;;3.00;3.00;;;;;14.22;100.00;99103.81;6282295;20;2750334;-45
2023/10/15 05:03:38;;;;;;;;;2.00;2.00;;;;;14.38;100.00;99108.75;6287457;20;2748247;-46
2023/10/15 05:06:10;;;;;;;;;4.00;3.00;;;;;14.21;100.00;99110.19;6285798;20;2739885;-45
2023/10/15 05:08:40;;;;;;;;;4.00;3.00;;;;;14.11;100.00;99117.34;6283935;20;2739927;-45
2023/10/15 05:11:11;;;;;;;;;3.00;3.00;;;;;14.07;100.00;99120.47;6283856;20;2720138;-44
2023/10/15 05:13:42;;;;;;;;;4.50;3.00;;;;;14.18;100.00;99118.56;6285327;20;2746143;-44
2023/10/15 05:16:10;;;;;;;;;4.00;4.00;;;;;14.07;100.00;99118.63;6286938;20;2736749;-45
2023/10/15 05:18:38;;;;;;;;;5.00;4.00;;;;;14.09;100.00;99130.16;6282316;20;2754574;-45
2023/10/15 05:21:06;;;;;;;;;2.00;2.00;;;;;13.96;100.00;99142.97;6287913;20;2740038;-48
2023/10/15 05:23:34;;;;;;;;;4.00;3.00;;;;;13.95;100.00;99152.03;6284772;20;2744064;-44
2023/10/15 05:26:01;;;;;;;;;4.50;3.00;;;;;13.88;100.00;99159.81;6285636;20;2751359;-45
2023/10/15 05:28:29;;;;;;;;;2.00;2.00;;;;;13.80;100.00;99152.34;6286383;20;2753448;-44
2023/10/15 05:30:58;;;;;;;;;3.00;3.00;;;;;13.78;100.00;99158.88;6281101;20;2741082;-45
2023/10/15 05:33:26;;;;;;;;;4.00;3.00;;;;;13.69;100.00;99167.69;6287186;20;2738827;-45
2023/10/15 05:35:56;;;;;;;;;3.00;3.00;;;;;13.72;100.00;99160.22;6282821;20;2746124;-44
2023/10/15 05:38:27;;;;;;;;;2.50;2.50;;;;;13.70;98.94;99148.69;6282662;20;2749354;-45
2023/10/15 05:40:58;;;;;;;;;6.00;5.00;;;;;13.57;97.75;99142.63;6285745;20;2745064;-48
2023/10/15 05:43:26;;;;;;;;;5.00;5.00;;;;;13.72;97.08;99149.44;6284139;20;2742019;-47
2023/10/15 05:45:54;;;;;;;;;5.00;5.00;;;;;13.65;95.78;99153.63;6283948;20;2742980;-47
2023/10/15 05:48:22;;;;;;;;;4.50;4.00;;;;;13.74;94.15;99152.00;6282145;20;2756655;-55
2023/10/15 05:50:51;;;;;;;;;5.00;5.00;;;;;13.68;93.70;99158.75;6283408;20;2743188;-49
2023/10/15 05:53:19;;;;;;;;;5.50;4.00;;;;;13.68;94.65;99149.81;6283160;20;2744052;-46
2023/10/15 05:55:47;;;;;;;;;4.50;4.00;;;;;13.66;94.13;99147.22;6281403;20;2741350;-46
2023/10/15 05:58:14;;;;;;;;;4.00;4.00;;;;;13.38;95.28;99163.00;6281800;20;2746077;-47
2023/10/15 06:00:42;;;;;;;;;5.00;5.00;;;;;13.49;95.03;99172.06;6284298;20;2748220;-49
2023/10/15 06:03:11;;;;;;;;;7.50;5.00;;;;;13.51;94.78;99160.16;6284722;20;2735205;-47
2023/10/15 06:05:42;;;;;;;;;6.86;5.00;;;;;13.59;93.71;99171.19;6325663;20;3456641;-45
2023/10/15 06:08:10;;;;;;;;;5.50;4.00;;;;;13.69;93.24;99178.50;6314298;20;2749303;-49
2023/10/15 06:10:38;;;;;;;;;6.00;3.00;;;;;13.59;93.03;99181.13;6284285;20;2752495;-51
2023/10/15 06:13:06;;;;;;;;;3.50;3.50;;;;;13.49;93.29;99190.94;6282382;20;2756546;-46
2023/10/15 06:15:34;;;;;;;;;7.00;6.00;;;;;13.46;93.39;99208.22;6285604;20;2734701;-46
2023/10/15 06:18:03;;;;;;;;;4.00;4.00;;;;;13.46;93.45;99215.47;6283122;20;2744036;-49
2023/10/15 06:20:31;;;;;;;;;6.00;5.00;;;;;13.63;91.54;99216.78;6282656;20;2748248;-49
2023/10/15 06:23:03;;;;;;;;;5.00;4.00;;;;;13.48;92.65;99222.44;6292083;20;2627498;-49
2023/10/15 06:25:32;;;;;;;;;5.00;5.00;;;;;13.46;92.55;99229.81;6282748;20;2747278;-50
2023/10/15 06:28:01;;;;;;;;;7.00;5.50;;;;;13.38;91.87;99216.09;6282891;20;2748322;-45
2023/10/15 06:30:29;;;;;;;;;4.00;4.00;;;;;13.65;91.34;99226.47;6286622;20;2748205;-46
2023/10/15 06:33:00;;;;;;;;;5.00;5.00;;;;;13.50;91.24;99225.00;6332095;20;3460708;-48
2023/10/15 06:35:28;;;;;;;;;6.00;4.00;;;;;13.59;90.88;99224.28;6319785;20;2744274;-47
2023/10/15 06:37:59;;;;;;;;;2.00;2.00;;;;;13.32;91.61;99239.00;6289440;20;2739884;-45
2023/10/15 06:40:28;;;;;;;;;4.00;4.00;;;;;13.14;93.49;99241.31;6285857;20;2738849;-45
2023/10/15 06:43:03;;;;;;;;;4.50;4.50;;;;;13.60;91.86;99250.25;6289323;20;2750293;-46
2023/10/15 06:45:32;;;;;;;;;6.00;6.00;;;;;13.36;93.49;99256.66;6288671;20;2741046;-45
2023/10/15 06:48:04;;;;;;;;;5.00;5.00;;;;;12.96;94.41;99270.56;6328817;20;3456535;-48
2023/10/15 06:50:33;;;;;;;;;4.00;4.00;;;;;13.19;95.58;99267.88;6316602;20;2750273;-45
2023/10/15 06:53:01;;;;;;;;;5.00;5.00;;;;;13.36;94.20;99256.66;6289501;20;2737811;-46
2023/10/15 06:55:31;;;;;;;;;5.50;5.00;;;;;13.18;94.54;99250.84;6285372;20;2739980;-49
2023/10/15 06:58:01;;;;;;;;;2.50;2.00;;;;;13.34;94.67;99253.19;6288217;20;2744149;-45
2023/10/15 07:00:31;;;;;;;;;18.50;18.50;;;;;13.12;94.42;99247.78;6283315;20;2808625;-45
2023/10/15 07:03:00;;;;;;;;;6.50;6.00;;;;;13.19;95.01;99243.59;6287404;20;2739112;-45
2023/10/15 07:05:28;;;;;;;;;7.00;7.00;;;;;12.90;96.30;99237.81;6286373;20;2742069;-49
2023/10/15 07:07:57;;;;;;;;;17.50;16.00;;;;;13.00;97.40;99229.88;6286137;20;2824266;-49
2023/10/15 07:10:27;;;;;;;;;8.33;8.33;;;;;13.13;96.72;99238.72;6283456;20;2750302;-46
2023/10/15 07:12:57;;;;;;;;;11.00;11.00;;;;;12.94;97.55;99226.69;6315130;20;3513805;-45
2023/10/15 07:15:25;;;;;;;;;12.00;12.00;;;;;13.23;96.87;99222.66;6315535;20;2798157;-45
2023/10/15 07:17:55;;;;;;;;;27.00;27.00;;;;;12.89;98.62;99223.50;6281480;20;2840852;-45
2023/10/15 07:20:26;;;;;;;;;56.00;46.00;;;;;12.94;99.00;99220.44;6280352;20;3593996;-45
2023/10/15 07:23:00;;;;;;;;;10.67;8.67;;;;;13.11;97.25;99227.19;6310837;20;3486823;-45
2023/10/15 07:25:28;;;;;;;;;7.00;7.00;;;;;13.08;97.20;99235.53;6318004;20;2728522;-46
2023/10/15 07:28:00;;;;;;;;;13.00;11.33;;;;;13.06;97.35;99238.34;6281100;20;3520129;-46
2023/10/15 07:30:30;;;;;;;;;31.67;25.67;;;;;13.12;95.48;99231.63;6316641;20;3591019;-45
2023/10/15 07:32:58;;;;;;;;;9.00;7.50;;;;;13.06;95.74;99232.09;6287252;20;2734709;-45
2023/10/15 07:35:30;;;;;;;;;6.00;5.00;;;;;13.28;93.16;99245.63;6287303;20;2745185;-47
2023/10/15 07:38:02;;;;;;;;;7.00;7.00;;;;;13.21;92.68;99255.13;6307969;20;2733752;-46
2023/10/15 07:40:34;;;;;;;;;7.00;5.50;;;;;13.14;92.95;99262.00;6301818;20;2732710;-47
2023/10/15 07:43:03;;;;;;;;;7.00;7.00;;;;;13.10;93.21;99265.91;6284855;20;2748245;-45
2023/10/15 07:45:34;;;;;;;;;9.50;7.00;;;;;13.17;93.40;99277.94;6285328;20;2748622;-45
2023/10/15 07:48:05;;;;;;;;;7.00;7.00;;;;;13.07;93.93;99287.72;6283480;20;2748192;-46
2023/10/15 07:50:34;;;;;;;;;9.00;9.00;;;;;13.07;94.40;99274.25;6282961;20;2755906;-46
2023/10/15 07:53:04;;;;;;;;;9.00;6.50;;;;;13.03;95.05;99268.22;6287335;20;2735699;-46
2023/10/15 07:55:33;;;;;;;;;9.00;9.00;;;;;13.24;94.22;99278.28;6282699;20;2752401;-48
2023/10/15 07:58:02;;;;;;;;;15.50;12.00;;;;;13.07;94.90;99303.91;6316206;20;2800329;-47
2023/10/15 08:00:30;;;;;;;;;14.50;14.50;;;;;13.01;96.14;99325.94;6286763;20;2496180;-47
2023/10/15 08:03:00;;;;;;;;;9.50;8.00;;;;;12.84;96.84;99325.38;6286925;20;2749274;-46
2023/10/15 08:05:31;;;;;;;;;8.50;8.50;;;;;13.03;96.68;99326.66;6289801;20;2748308;-46
2023/10/15 08:08:05;;;;;;;;;13.00;13.00;;;;;13.01;97.15;99325.94;6282591;20;3524239;-46
2023/10/15 08:10:36;;;;;;;;;22.50;20.00;;;;;12.74;98.15;99324.38;6313896;20;2843068;-47
2023/10/15 08:13:07;;;;;;;;;26.00;23.00;;;;;12.83;97.85;99322.81;6283684;20;2847295;-48
2023/10/15 08:15:36;;;;;;;;;16.00;15.50;;;;;12.96;97.14;99321.75;6282227;20;2483693;-48
2023/10/15 08:18:06;;;;;;;;;36.67;28.67;;;;;12.97;97.80;99306.44;6284016;20;3622151;-50
2023/10/15 08:20:35;;;;;;;;;46.67;37.67;;;;;13.06;96.13;99302.16;6282713;20;3609659;-46
2023/10/15 08:23:05;;;;;;;;;53.33;42.00;;;;;12.99;97.38;99295.56;6317256;20;3603389;-50
2023/10/15 08:25:36;;;;;;;;;67.33;49.33;;;;;13.08;97.02;99289.44;6280493;20;3635664;-50
2023/10/15 08:28:07;;;;;;;;;69.33;51.67;;;;;12.88;96.69;99289.16;6284672;20;4266914;-51
2023/10/15 08:30:37;;;;;;;;;59.67;44.33;;;;;13.07;95.00;99276.94;6312879;20;3634626;-51
2023/10/15 08:33:10;;;;;;;;;22.00;18.00;;;;;13.04;93.40;99282.56;6315306;20;3567111;-51
2023/10/15 08:35:40;;;;;;;;;20.00;17.00;;;;;13.11;93.03;99268.50;6277283;20;2494017;-50
2023/10/15 08:38:12;;;;;;;;;34.00;30.00;;;;;13.13;92.63;99265.66;6286596;20;3617328;-48
2023/10/15 08:40:45;;;;;;;;;49.67;36.00;;;;;13.08;92.25;99240.91;6282563;20;3620656;-49
2023/10/15 08:43:32;;;;;;;;;72.50;54.75;;;;;13.11;93.49;99236.16;6311010;20;4398125;-49
2023/10/15 08:46:09;;;;;;;;;53.67;42.33;;;;;13.39;90.31;99267.19;6311884;20;3623310;-48
2023/10/15 08:48:41;;;;;;;;;39.00;32.00;;;;;13.29;90.34;99268.88;6279675;20;3605572;-46
2023/10/15 08:51:12;;;;;;;;;48.67;39.00;;;;;13.35;88.94;99268.41;6313914;20;3597193;-51
2023/10/15 08:53:42;;;;;;;;;36.00;32.00;;;;;13.31;88.12;99261.53;6278897;20;2853571;-51
2023/10/15 08:56:14;;;;;;;;;37.00;31.67;;;;;13.46;88.18;99266.72;6313537;20;3616023;-48
2023/10/15 08:58:45;;;;;;;;;37.00;33.67;;;;;13.46;89.56;99266.72;6278198;20;3612857;-47
2023/10/15 09:01:14;;;;;;;;;26.00;23.33;;;;;13.56;89.08;99256.88;6313451;20;3602478;-47
2023/10/15 09:03:43;;;;;;;;;14.00;13.50;;;;;13.66;88.29;99257.84;6283434;20;2804503;-47
2023/10/15 09:06:14;;;;;;;;;17.67;17.67;;;;;13.64;87.41;99261.63;6281681;20;3571245;-46
2023/10/15 09:08:43;;;;;;;;;17.33;16.33;;;;;13.68;85.87;99261.28;6276934;20;2824332;-51
2023/10/15 09:11:12;;;;;;;;;12.33;11.33;;;;;13.66;86.42;99257.84;6309672;20;3516021;-47
2023/10/15 09:13:40;;;;;;;;;7.00;6.50;;;;;13.67;85.45;99270.38;6308498;20;2738855;-47
2023/10/15 09:16:10;;;;;;;;;15.00;12.00;;;;;13.51;86.02;99269.91;6282886;20;2798213;-49
2023/10/15 09:18:38;;;;;;;;;11.00;11.00;;;;;13.30;85.63;99278.72;6284640;20;2794238;-48
2023/10/15 09:21:08;;;;;;;;;14.33;11.67;;;;;13.48;84.16;99289.00;6285516;20;3508604;-49
2023/10/15 09:23:37;;;;;;;;;11.50;9.00;;;;;13.44;84.01;99287.53;6319350;20;2762780;-50
2023/10/15 09:26:08;;;;;;;;;18.00;17.00;;;;;13.31;84.27;99285.81;6279520;20;2819158;-46
2023/10/15 09:28:38;;;;;;;;;43.00;32.33;;;;;13.52;84.42;99287.78;6282307;20;2857573;-47
2023/10/15 09:31:11;;;;;;;;;12.00;12.00;;;;;13.55;83.87;99279.44;6315009;20;2782582;-50
2023/10/15 09:33:40;;;;;;;;;6.00;6.00;;;;;13.45;83.84;99278.47;6278985;20;2741297;-46
2023/10/15 09:36:10;;;;;;;;;17.67;16.00;;;;;13.60;82.71;99270.00;6280942;20;3555577;-47
2023/10/15 09:38:39;;;;;;;;;21.33;18.67;;;;;13.75;81.52;99261.66;6316662;20;3575254;-51
2023/10/15 09:41:07;;;;;;;;;7.00;7.00;;;;;13.69;81.45;99257.63;6284910;20;2745077;-47
2023/10/15 09:43:35;;;;;;;;;25.00;20.00;;;;;13.79;81.07;99272.03;6287876;20;3589838;-51
2023/10/15 09:46:06;;;;;;;;;18.00;15.00;;;;;13.84;81.15;99260.88;6279679;20;2813845;-47
2023/10/15 09:48:37;;;;;;;;;16.00;13.00;;;;;13.78;81.28;99253.31;6307577;20;2491962;-47
2023/10/15 09:51:07;;;;;;;;;9.50;9.00;;;;;13.86;79.50;99253.53;6282965;20;2760866;-47
2023/10/15 09:53:36;;;;;;;;;3.50;3.50;;;;;13.58;80.32;99249.50;6273917;20;2733728;-50
2023/10/15 09:56:07;;;;;;;;;15.00;11.00;;;;;13.48;82.21;99253.94;6280232;20;2794003;-46
2023/10/15 09:58:38;;;;;;;;;22.33;22.33;;;;;13.61;81.92;99254.66;6277661;20;2832676;-48
2023/10/15 10:01:25;;;;;;;;;22.50;18.00;;;;;13.66;80.93;99247.03;6310441;20;2830622;-48
2023/10/15 10:04:06;;;;;;;;;19.50;19.50;;;;;13.85;81.41;99259.91;6278185;20;3456465;-48
2023/10/15 10:07:03;;;;;;;;;74.50;60.75;;;;;13.88;81.33;99272.31;6308768;20;4386699;-50
2023/10/15 10:10:18;;;;;;;;;77.25;59.50;;;;;13.74;80.76;99276.94;6311135;20;4429540;-50
2023/10/15 10:13:56;;;;;;;;;48.33;39.00;;;;;13.74;79.99;99279.66;6311906;20;3621183;-46
2023/10/15 10:16:28;;;;;;;;;44.33;35.00;;;;;13.72;80.49;99289.75;6276414;20;3602320;-52
2023/10/15 10:18:57;;;;;;;;;38.00;32.33;;;;;13.81;80.31;99297.06;6311647;20;3598186;-47
2023/10/15 10:21:30;;;;;;;;;25.50;23.00;;;;;13.86;79.80;99295.84;6271765;20;2839861;-47
2023/10/15 10:23:59;;;;;;;;;18.67;16.00;;;;;13.76;79.52;99280.41;6274656;20;3567972;-46
2023/10/15 10:26:35;;;;;;;;;28.33;28.00;;;;;13.78;79.91;99291.06;6307055;20;2856634;-49
2023/10/15 10:29:03;;;;;;;;;12.00;10.00;;;;;13.96;79.06;99288.72;6312870;20;2796143;-46
2023/10/15 10:31:36;;;;;;;;;13.50;13.50;;;;;14.07;79.21;99283.28;6281315;20;2810763;-48
2023/10/15 10:34:05;;;;;;;;;20.50;19.50;;;;;14.11;77.56;99286.59;6277988;20;2839878;-47
2023/10/15 10:36:38;;;;;;;;;18.50;16.50;;;;;14.13;78.67;99271.13;6278215;20;2822891;-48
2023/10/15 10:39:07;;;;;;;;;14.00;12.67;;;;;14.02;77.86;99272.00;6279304;20;3522255;-48
2023/10/15 10:41:44;;;;;;;;;17.00;17.00;;;;;13.95;77.66;99263.53;6311294;20;2833629;-46
2023/10/15 10:44:23;;;;;;;;;22.00;20.00;;;;;13.91;76.28;99263.94;6291089;20;3572247;-46
2023/10/15 10:46:56;;;;;;;;;37.50;34.00;;;;;13.87;76.39;99265.16;6308274;20;3486848;-47
2023/10/15 10:49:55;;;;;;;;;68.33;52.00;;;;;13.86;77.03;99269.72;6309511;20;3627373;-46
2023/10/15 10:52:35;;;;;;;;;81.63;72.38;;;;;13.99;77.50;99272.28;6273155;20;3664964;-50
2023/10/15 10:55:33;;;;;;;;;63.33;49.00;;;;;13.87;76.68;99270.56;6274424;20;3609719;-49
2023/10/15 10:58:24;;;;;;;;;88.25;76.25;;;;;13.87;77.20;99265.16;6311823;20;4435761;-46
2023/10/15 11:00:53;;;;;;;;;33.00;29.67;;;;;13.97;76.61;99282.31;6315473;20;3600287;-46
2023/10/15 11:03:26;;;;;;;;;70.33;52.33;;;;;13.70;76.47;99270.09;6281363;20;3624264;-47
2023/10/15 11:05:55;;;;;;;;;40.00;32.33;;;;;13.77;75.99;99268.63;6281087;20;3615905;-47
2023/10/15 11:08:25;;;;;;;;;59.67;44.00;;;;;14.06;75.52;99281.59;6279206;20;3637741;-47
2023/10/15 11:10:59;;;;;;;;;31.67;24.67;;;;;14.08;74.78;99292.25;6274519;20;2853508;-45
2023/10/15 11:13:29;;;;;;;;;84.00;74.00;;;;;14.09;75.46;99289.44;6302435;20;1931607;-46
2023/10/15 11:15:59;;;;;;;;;52.00;44.00;;;;;13.90;75.52;99286.50;6277135;20;3617974;-46
2023/10/15 11:18:29;;;;;;;;;53.33;43.00;;;;;13.91;76.30;99285.53;6314758;20;3606514;-47
2023/10/15 11:21:22;;;;;;;;;32.33;28.33;;;;;13.99;74.70;99291.16;6283058;20;3584780;-52
2023/10/15 11:23:53;;;;;;;;;17.50;15.50;;;;;14.09;75.48;99305.63;6281277;20;2496099;-52
2023/10/15 11:26:23;;;;;;;;;54.67;45.67;;;;;14.10;74.98;99299.22;6282823;20;3619139;-47
2023/10/15 11:28:52;;;;;;;;;55.33;43.33;;;;;13.98;74.86;99303.81;6311670;20;3634707;-47
2023/10/15 11:31:21;;;;;;;;;37.33;29.00;;;;;13.92;74.25;99301.59;6315933;20;3603382;-47
2023/10/15 11:33:51;;;;;;;;;40.67;34.67;;;;;14.03;74.67;99303.41;6278790;20;3611713;-46
2023/10/15 11:36:22;;;;;;;;;30.67;28.67;;;;;13.87;73.49;99316.44;6313228;20;3593083;-46
2023/10/15 11:38:53;;;;;;;;;25.67;25.00;;;;;13.94;72.88;99323.06;6280671;20;3599360;-50
2023/10/15 11:41:23;;;;;;;;;46.67;40.00;;;;;13.87;73.18;99325.41;6318812;20;3587806;-45